Airfield :
LOGIN :

Register | Disclaimer

   EN    FR    IT 

 










Legend :    VFR   Marginal VFR   IFR   Intensive IFR   Very Intensive IFR
Visi :
Ceiling :
>= 8 km
>= 3000ft
5 to 8 km
1000 to 3000 ft
1500m to 5 km
500 to 1000 ft
800 to 1500m
200 to 500 ft
< 800m
< 200 ft
Symbols :   Thunderstorms  Fog  Heavy snow  Heavy precipitations  Wind > 20 kt
SIGMETs :     Misc.  Thunderstorms  Icing  Turbulence  Mountain Waves  Volcanic Ashes






- Airport Elevation : 341 ft


EPMO - Modlin

CURRENT METAR :
  • 252000Z 19003KT 9999 SCT029 12/12 Q1015

EXPIRED METARs :
  • 251930Z VRB02KT 9999 FEW037 12/11 Q1015
  • 251900Z 22005KT 9999 FEW035 SCT047 12/11 Q1015
  • 251830Z 22005KT CAVOK 12/11 Q1014
  • 251800Z 24005KT CAVOK 12/11 Q1014
  • 251730Z 23004KT CAVOK 12/11 Q1014

TAF TAF EPMO
Valid from the 25 at 18:00 until the 26 at 18:00 UTC


251730Z 2518/2618 22004KT 9999 SCT040
TEMPO 2518/2520 -RA BKN010
PROB40
TEMPO 2521/2606 3000 BR
PROB30 2600/2603 1200 BR
BECMG 2604/2606 28010KT
TEMPO 2610/2617 27017G27KT -SHRA BKN030CB



MET'MAP, your aeronautical weather chart ! - Copyright ORBIFLY December 2007 - Disclaimer

ORBIFLY MET'MAP TEAM :

Programming & Development : Alexandra Zaïnal
Original concept : Baudouin d'Aumeries
Technical & hardware support : Manuel Goepfert
Assistance : Marc-Olivier Méhu

Contact : metmap@orbifly.com




SOURCES & CREDITS :

   NOAA